Etusivu
METAR-TAF:

METAR-TAF

Lentoasemat :

Hemphill County Airport

Canadian, Texas, Yhdysvallat

Leveyspiiri: 35-54N, Pituuspiiri: 100-24W, korkeus merenpinnasta: 730 m

Tämänhetkinen sää

Tämä raportti tehtiin 13 minuuttia sitten, kello 10.55 UTC
Tuuli 8 kn pohjoisesta
Lämpötila 5°C
Kosteus 75%
Ilmanpaine 1025 hPa
Näkyvyys: 16.1 km
selkeää

METAR: KHHF 061055Z AUTO 35008KT 10SM CLR 05/01 A3026 RMK AO2 T00460012

Aika: 05:08 (11:08 UTC)


TAF: puuttuu

Säähavainnot ja -ennusteet yli 4000 lentoasemalta (METAR- ja TAF-raportit).

Käytössä olevat sääasemat on merkitty karttaan keltaisilla ja punaisilla pisteillä.

Aseta hiiri pisteen päälle nähdäksesi sääaseman nimen.

Klikkaa sitten nähdäksesi säähavainnot ja -ennusteet.

Kartan vaihtaminen: klikkaa mustalla rastilla varustettuja vihreitä pisteitä, niin voit zoomata sisään; viivalla varustettua vihreää pistettä, niin voit zoomata ulos tai vihreitä nuolia, niin pääset viereisille kartoille.


METAR-TAF: